createdAt,value
2017-08-19T00:00:31.532Z,89.97
2017-08-19T00:01:06.916Z,89.72
2017-08-19T00:02:44.751Z,89.81
2017-08-19T00:03:21.254Z,89.90
2017-08-19T00:04:44.908Z,89.81
2017-08-19T00:05:19.068Z,89.94
2017-08-19T00:05:54.616Z,89.65
2017-08-19T00:06:33.412Z,89.76
2017-08-19T00:07:09.249Z,89.76
2017-08-19T00:07:43.569Z,89.73
2017-08-19T00:19:34.460Z,89.46
2017-08-19T00:20:12.556Z,89.31
2017-08-19T00:20:49.403Z,89.49
2017-08-19T00:21:30.408Z,89.43
2017-08-19T00:22:05.857Z,89.35
2017-08-19T00:22:45.480Z,89.39
2017-08-19T00:23:46.993Z,89.27
2017-08-19T00:24:22.476Z,89.44
2017-08-19T00:24:59.824Z,89.45
2017-08-19T00:25:38.468Z,89.47
2017-08-19T00:26:18.504Z,89.40
2017-08-19T00:26:55.200Z,89.39
2017-08-19T00:27:32.952Z,89.49
2017-08-19T00:28:09.941Z,89.66
2017-08-19T00:28:49.041Z,89.35
2017-08-19T00:29:23.388Z,89.63
2017-08-19T00:29:58.924Z,89.91
2017-08-19T00:30:35.248Z,89.52
2017-08-19T00:31:12.709Z,89.28
2017-08-19T00:31:48.112Z,89.20
2017-08-19T00:32:24.623Z,89.27
2017-08-19T00:33:02.400Z,89.41
2017-08-19T00:33:38.363Z,89.13
2017-08-19T00:35:01.571Z,89.08
2017-08-19T00:35:37.783Z,89.04
2017-08-19T00:36:16.257Z,89.33
2017-08-19T00:36:53.220Z,89.33
2017-08-19T00:37:30.239Z,89.25
2017-08-19T00:38:09.583Z,88.97
2017-08-19T00:38:46.260Z,89.08
2017-08-19T00:39:21.457Z,88.98
2017-08-19T00:40:21.948Z,88.96
2017-08-19T00:40:59.852Z,88.97
2017-08-19T00:42:47.884Z,89.23
2017-08-19T00:54:44.515Z,88.58
2017-08-19T00:55:30.491Z,88.85
2017-08-19T00:56:04.567Z,88.59
2017-08-19T00:56:39.920Z,88.67
2017-08-19T00:57:15.248Z,88.73
2017-08-19T00:57:50.559Z,88.72
2017-08-19T00:58:25.892Z,88.92
2017-08-19T00:59:01.219Z,88.86
2017-08-19T00:59:36.564Z,89.09
2017-08-19T01:00:11.915Z,88.99
2017-08-19T01:00:47.228Z,88.94
2017-08-19T01:01:22.558Z,89.10
2017-08-19T01:01:57.891Z,89.18
2017-08-19T01:02:33.407Z,89.18
2017-08-19T01:03:08.536Z,88.39
2017-08-19T01:03:43.887Z,89.18
2017-08-19T01:04:19.199Z,89.12
2017-08-19T01:04:54.549Z,88.96
2017-08-19T01:05:29.892Z,88.87
2017-08-19T01:06:05.208Z,89.09
2017-08-19T01:06:40.519Z,88.76
2017-08-19T01:07:15.856Z,88.87
2017-08-19T01:07:51.188Z,88.87
2017-08-19T01:08:26.519Z,88.83
2017-08-19T01:09:01.856Z,88.82
2017-08-19T01:09:37.174Z,89.10
2017-08-19T01:10:12.507Z,88.71
2017-08-19T01:10:47.865Z,88.78
2017-08-19T01:11:23.180Z,88.72
2017-08-19T01:12:00.144Z,88.91
2017-08-19T01:12:35.439Z,88.66
2017-08-19T01:13:10.772Z,88.89
2017-08-19T01:13:46.095Z,88.59
2017-08-19T01:14:21.429Z,88.49
2017-08-19T01:14:56.759Z,88.55
2017-08-19T01:15:37.314Z,88.84
2017-08-19T01:16:11.772Z,88.51
2017-08-19T01:16:47.865Z,89.03
2017-08-19T01:17:24.056Z,88.41
2017-08-19T01:18:00.435Z,88.62
2017-08-19T01:18:35.899Z,88.62
2017-08-19T01:19:12.626Z,88.45
2017-08-19T01:19:48.492Z,88.32
2017-08-19T01:40:32.432Z,87.97
2017-08-19T01:47:09.028Z,88.57
2017-08-19T01:54:22.665Z,88.72
2017-08-19T01:59:53.495Z,88.79
2017-08-19T02:00:31.009Z,88.90
2017-08-19T02:33:00.621Z,89.36
2017-08-19T02:41:38.204Z,89.66
2017-08-19T02:43:19.944Z,89.43
2017-08-19T02:56:29.666Z,89.55
2017-08-19T03:00:31.642Z,89.53
2017-08-19T03:34:28.425Z,89.81
2017-08-19T03:37:01.407Z,89.94
2017-08-19T03:37:43.512Z,89.75
2017-08-19T03:38:28.708Z,89.81
2017-08-19T03:39:14.838Z,89.93
2017-08-19T03:40:53.205Z,89.93
2017-08-19T03:41:38.096Z,89.83
2017-08-19T03:42:37.216Z,90.28
2017-08-19T03:53:01.016Z,90.00
2017-08-19T03:59:50.188Z,89.76
2017-08-19T04:00:39.651Z,89.56
2017-08-19T04:01:17.160Z,89.82
2017-08-19T04:25:58.014Z,89.57
2017-08-19T05:24:53.351Z,89.92
2017-08-19T05:25:43.499Z,90.00
2017-08-19T05:49:54.863Z,89.60
2017-08-19T05:58:38.643Z,90.69
2017-08-19T05:59:21.597Z,90.78
2017-08-19T06:01:24.993Z,90.75
2017-08-19T06:05:47.016Z,90.53
2017-08-19T06:08:49.639Z,90.39
2017-08-19T06:11:51.348Z,90.30
2017-08-19T06:12:51.086Z,90.27
2017-08-19T06:15:57.196Z,89.94
2017-08-19T06:19:19.816Z,90.01
2017-08-19T06:20:02.631Z,90.46
2017-08-19T06:21:10.559Z,90.40
2017-08-19T06:21:50.102Z,90.51
2017-08-19T06:22:48.025Z,90.45
2017-08-19T06:23:52.607Z,90.32
2017-08-19T06:24:33.414Z,90.44
2017-08-19T06:25:12.839Z,90.36
2017-08-19T06:25:53.167Z,89.95
2017-08-19T06:26:34.257Z,90.14
2017-08-19T06:29:01.064Z,89.81
2017-08-19T06:29:42.284Z,89.84
2017-08-19T06:35:27.504Z,89.90
2017-08-19T06:41:26.138Z,89.38
2017-08-19T06:42:09.213Z,88.98
2017-08-19T06:43:20.179Z,89.42
2017-08-19T06:43:56.091Z,89.30
2017-08-19T06:44:31.455Z,89.13
2017-08-19T06:45:09.523Z,89.16
2017-08-19T06:45:52.212Z,89.39
2017-08-19T06:46:39.464Z,89.36
2017-08-19T06:47:20.421Z,89.03
2017-08-19T06:48:01.998Z,89.36
2017-08-19T06:48:43.202Z,89.25
2017-08-19T06:49:24.450Z,89.18
2017-08-19T06:50:21.343Z,89.25
2017-08-19T06:52:26.190Z,88.96
2017-08-19T06:53:09.563Z,89.07
2017-08-19T06:53:44.663Z,88.77
2017-08-19T06:56:07.037Z,88.90
2017-08-19T06:56:42.032Z,89.06
2017-08-19T06:57:20.353Z,88.86
2017-08-19T06:59:07.121Z,88.84
2017-08-19T06:59:46.083Z,88.62
2017-08-19T07:00:29.020Z,88.07
2017-08-19T07:01:18.222Z,88.28
2017-08-19T07:01:54.101Z,88.09
2017-08-19T07:02:50.719Z,88.04
2017-08-19T07:03:56.527Z,87.68
2017-08-19T07:04:34.247Z,87.94
2017-08-19T07:06:09.301Z,88.09
2017-08-19T07:06:49.495Z,87.94
2017-08-19T07:07:58.291Z,87.45
2017-08-19T07:08:32.512Z,87.34
2017-08-19T07:09:07.878Z,87.38
2017-08-19T07:10:17.752Z,87.73
2017-08-19T07:10:53.119Z,87.54
2017-08-19T07:11:27.885Z,87.55
2017-08-19T07:12:03.192Z,87.22
2017-08-19T07:12:38.715Z,87.15
2017-08-19T07:13:14.743Z,86.94
2017-08-19T07:13:57.743Z,86.70
2017-08-19T07:14:33.185Z,86.51
2017-08-19T07:15:08.883Z,86.31
2017-08-19T07:15:44.032Z,86.13
2017-08-19T07:16:19.334Z,86.46
2017-08-19T07:16:54.479Z,86.33
2017-08-19T07:17:30.768Z,86.41
2017-08-19T07:18:12.632Z,86.48
2017-08-19T07:18:48.366Z,86.13
2017-08-19T07:19:34.338Z,86.25
2017-08-19T07:20:09.860Z,86.00
2017-08-19T07:20:50.477Z,85.92
2017-08-19T07:21:27.409Z,85.75
2017-08-19T07:22:06.845Z,85.80
2017-08-19T07:22:50.487Z,85.42
2017-08-19T07:23:39.184Z,85.56
2017-08-19T07:24:22.688Z,85.21
2017-08-19T07:24:57.456Z,85.42
2017-08-19T07:25:32.987Z,85.51
2017-08-19T07:26:15.333Z,85.66
2017-08-19T07:26:50.311Z,85.54
2017-08-19T07:27:26.583Z,85.52
2017-08-19T07:28:00.955Z,85.59
2017-08-19T07:28:36.280Z,85.36
2017-08-19T07:29:12.191Z,84.92
2017-08-19T07:29:47.319Z,84.94
2017-08-19T07:30:43.944Z,85.15
2017-08-19T07:31:19.043Z,85.08
2017-08-19T07:31:54.559Z,84.74
2017-08-19T07:32:47.425Z,84.81
2017-08-19T07:39:15.990Z,85.34
2017-08-19T07:40:17.011Z,85.21
2017-08-19T07:40:56.517Z,85.13
2017-08-19T07:41:46.512Z,84.97
2017-08-19T07:43:45.714Z,84.96
2017-08-19T07:44:30.288Z,85.00
2017-08-19T07:45:07.603Z,85.11
2017-08-19T07:45:42.612Z,85.08
2017-08-19T07:46:18.735Z,85.13
2017-08-19T07:47:09.223Z,84.72
2017-08-19T07:47:56.410Z,84.93
2017-08-19T07:48:36.403Z,84.60
2017-08-19T07:49:11.583Z,84.79
2017-08-19T07:49:46.723Z,84.73
2017-08-19T07:50:22.442Z,85.01
2017-08-19T07:51:01.755Z,84.84
2017-08-19T07:51:36.971Z,84.82
2017-08-19T07:52:12.284Z,84.87
2017-08-19T07:59:09.800Z,84.38
2017-08-19T08:00:33.976Z,83.96
2017-08-19T08:03:07.076Z,82.90
2017-08-19T08:09:26.572Z,81.86
2017-08-19T08:12:30.605Z,81.11
2017-08-19T08:13:13.924Z,80.51
2017-08-19T08:13:55.376Z,80.44
2017-08-19T08:18:09.828Z,79.76
2017-08-19T08:20:51.145Z,79.87
2017-08-19T08:21:29.984Z,80.31
2017-08-19T08:22:11.185Z,80.08
2017-08-19T08:22:48.972Z,80.11
2017-08-19T08:23:28.973Z,79.37
2017-08-19T08:24:33.751Z,80.25
2017-08-19T08:25:36.992Z,81.14
2017-08-19T08:26:13.039Z,80.06
2017-08-19T08:27:16.892Z,80.23
2017-08-19T08:27:53.771Z,79.98
2017-08-19T08:28:32.015Z,79.90
2017-08-19T08:29:09.392Z,79.94
2017-08-19T08:29:55.376Z,79.93
2017-08-19T08:31:01.939Z,80.05
2017-08-19T08:31:39.208Z,79.97
2017-08-19T08:32:46.998Z,79.94
2017-08-19T08:34:04.601Z,79.63
2017-08-19T08:34:46.155Z,79.61
2017-08-19T08:35:49.715Z,79.80
2017-08-19T08:36:25.023Z,79.37
2017-08-19T08:37:05.585Z,79.22
2017-08-19T08:37:44.155Z,78.77
2017-08-19T08:38:50.852Z,78.94
2017-08-19T08:39:30.251Z,79.10
2017-08-19T08:40:37.474Z,78.90
2017-08-19T08:41:44.221Z,78.90
2017-08-19T08:42:19.792Z,78.73
2017-08-19T08:43:17.552Z,78.60
2017-08-19T08:44:21.472Z,78.54
2017-08-19T08:44:56.976Z,78.30
2017-08-19T08:46:04.582Z,78.18
2017-08-19T08:47:11.711Z,78.22
2017-08-19T08:48:18.728Z,78.15
2017-08-19T08:48:57.187Z,78.52
2017-08-19T08:49:51.445Z,78.21
2017-08-19T08:50:42.972Z,78.42
2017-08-19T08:51:49.575Z,78.25
2017-08-19T08:52:36.503Z,78.04
2017-08-19T08:53:12.040Z,77.71
2017-08-19T08:54:19.070Z,77.48
2017-08-19T08:55:25.792Z,77.66
2017-08-19T08:56:18.015Z,77.63
2017-08-19T08:57:24.499Z,77.13
2017-08-19T08:58:34.719Z,77.03
2017-08-19T08:59:26.583Z,76.43
2017-08-19T09:00:34.880Z,76.15
2017-08-19T09:01:11.789Z,76.30
2017-08-19T09:02:19.899Z,76.40
2017-08-19T09:03:28.454Z,76.84
2017-08-19T09:04:03.323Z,76.77
2017-08-19T09:04:38.631Z,76.56
2017-08-19T09:05:36.716Z,76.70
2017-08-19T09:06:37.291Z,76.54
2017-08-19T09:07:28.615Z,76.52
2017-08-19T09:08:28.152Z,76.21
2017-08-19T09:09:04.896Z,76.44
2017-08-19T09:10:09.083Z,75.98
2017-08-19T09:11:16.095Z,76.11
2017-08-19T09:12:23.247Z,75.99
2017-08-19T09:13:34.123Z,75.82
2017-08-19T09:14:41.421Z,75.97
2017-08-19T09:15:29.926Z,76.43
2017-08-19T09:16:36.289Z,76.30
2017-08-19T09:17:37.866Z,76.68
2017-08-19T09:18:19.580Z,76.49
2017-08-19T09:19:26.716Z,76.49
2017-08-19T09:20:12.051Z,76.95
2017-08-19T09:20:47.159Z,77.00
2017-08-19T09:22:02.313Z,76.62
2017-08-19T09:23:09.393Z,76.58
2017-08-19T09:24:16.939Z,76.38
2017-08-19T09:25:32.272Z,76.19
2017-08-19T09:26:07.351Z,75.79
2017-08-19T09:27:14.472Z,76.03
2017-08-19T09:28:17.479Z,76.02
2017-08-19T09:29:24.422Z,75.74
2017-08-19T09:30:11.484Z,75.27
2017-08-19T09:30:57.564Z,74.52
2017-08-19T09:31:32.663Z,74.53
2017-08-19T09:32:40.311Z,74.79
2017-08-19T09:33:47.515Z,75.25
2017-08-19T09:34:22.608Z,74.96
2017-08-19T09:35:29.428Z,75.00
2017-08-19T09:36:08.160Z,74.92
2017-08-19T09:37:09.055Z,75.25
2017-08-19T09:38:15.880Z,75.09
2017-08-19T09:39:10.792Z,75.71
2017-08-19T09:40:12.955Z,75.71
2017-08-19T09:40:50.473Z,75.89
2017-08-19T09:41:57.507Z,75.77
2017-08-19T09:43:05.679Z,74.79
2017-08-19T09:43:39.975Z,75.67
2017-08-19T09:44:18.695Z,75.93
2017-08-19T09:44:57.219Z,75.66
2017-08-19T09:46:04.470Z,75.38
2017-08-19T09:47:12.028Z,76.06
2017-08-19T09:48:20.199Z,76.04
2017-08-19T09:49:34.155Z,76.48
2017-08-19T09:50:41.655Z,76.27
2017-08-19T09:51:48.672Z,75.95
2017-08-19T09:52:58.899Z,75.97
2017-08-19T09:54:06.171Z,75.72
2017-08-19T09:54:59.030Z,74.71
2017-08-19T09:56:11.180Z,74.33
2017-08-19T09:57:02.509Z,74.01
2017-08-19T09:58:09.383Z,73.89
2017-08-19T09:59:01.028Z,74.19
2017-08-19T09:59:36.347Z,73.43
2017-08-19T10:00:11.687Z,73.16
2017-08-19T10:01:30.218Z,72.98
2017-08-19T10:02:37.263Z,72.92
2017-08-19T10:03:44.619Z,72.98
2017-08-19T10:04:51.999Z,72.21
2017-08-19T10:06:02.352Z,72.35
2017-08-19T10:07:19.273Z,72.03
2017-08-19T10:08:26.216Z,71.75
2017-08-19T10:09:33.352Z,72.03
2017-08-19T10:10:40.499Z,71.05
2017-08-19T10:11:47.198Z,70.05
2017-08-19T10:12:36.240Z,69.66
2017-08-19T10:13:53.132Z,69.07
2017-08-19T10:14:54.059Z,68.59
2017-08-19T10:16:03.179Z,68.26
2017-08-19T10:17:11.683Z,68.30
2017-08-19T10:18:09.535Z,68.63
2017-08-19T10:18:44.827Z,67.94
2017-08-19T10:19:20.169Z,67.71
2017-08-19T10:19:55.683Z,66.52
2017-08-19T10:20:43.650Z,66.05
2017-08-19T10:21:18.947Z,65.79
2017-08-19T10:21:54.267Z,65.48
2017-08-19T10:23:01.299Z,65.63
2017-08-19T10:23:56.219Z,66.09
2017-08-19T10:25:02.051Z,65.93
2017-08-19T10:25:38.671Z,65.53
2017-08-19T10:26:47.235Z,65.41
2017-08-19T10:27:54.984Z,65.84
2017-08-19T10:29:02.084Z,65.72
2017-08-19T10:30:09.827Z,65.55
2017-08-19T10:30:52.549Z,64.82
2017-08-19T10:31:59.651Z,64.80
2017-08-19T10:32:41.451Z,64.42
2017-08-19T10:33:48.798Z,64.53
2017-08-19T10:35:02.400Z,64.68
2017-08-19T10:35:37.711Z,64.15
2017-08-19T10:36:51.652Z,64.35
2017-08-19T10:37:59.346Z,64.30
2017-08-19T10:38:51.605Z,64.36
2017-08-19T10:40:06.896Z,64.24
2017-08-19T10:41:13.806Z,64.02
2017-08-19T10:42:20.660Z,64.22
2017-08-19T10:43:27.647Z,63.67
2017-08-19T10:44:34.759Z,64.03
2017-08-19T10:45:41.847Z,63.97
2017-08-19T10:46:21.835Z,63.26
2017-08-19T10:47:28.898Z,62.82
2017-08-19T10:48:36.162Z,63.07
2017-08-19T10:49:12.980Z,62.64
2017-08-19T10:50:20.132Z,62.43
2017-08-19T10:51:27.727Z,62.75
2017-08-19T10:52:04.101Z,62.72
2017-08-19T10:53:12.016Z,62.58
2017-08-19T10:53:51.620Z,61.85
2017-08-19T10:54:50.808Z,62.01
2017-08-19T10:55:57.607Z,61.70
2017-08-19T10:56:53.058Z,61.79
2017-08-19T10:57:50.228Z,62.19
2017-08-19T10:58:57.599Z,62.22
2017-08-19T10:59:42.351Z,62.49
2017-08-19T11:00:46.699Z,61.45
2017-08-19T11:01:53.603Z,61.42
2017-08-19T11:03:00.612Z,61.67
2017-08-19T11:04:07.303Z,61.21
2017-08-19T11:04:46.808Z,61.77
2017-08-19T11:05:33.163Z,61.00
2017-08-19T11:06:40.775Z,61.20
2017-08-19T11:07:47.616Z,61.64
2017-08-19T11:08:27.680Z,61.45
2017-08-19T11:09:30.210Z,61.66
2017-08-19T11:10:05.532Z,61.18
2017-08-19T11:10:41.276Z,61.16
2017-08-19T11:11:49.175Z,61.24
2017-08-19T11:12:56.151Z,61.49
2017-08-19T11:13:40.376Z,62.03
2017-08-19T11:14:47.471Z,61.87
2017-08-19T11:15:48.359Z,62.29
2017-08-19T11:16:39.655Z,62.28
2017-08-19T11:17:47.092Z,62.11
2017-08-19T11:18:22.372Z,62.34
2017-08-19T11:19:30.087Z,61.96
2017-08-19T11:20:37.123Z,61.35
2017-08-19T11:21:31.136Z,61.42
2017-08-19T11:22:16.040Z,60.85
2017-08-19T11:23:24.545Z,60.48
2017-08-19T11:24:03.551Z,60.73
2017-08-19T11:24:48.489Z,60.85
2017-08-19T11:25:26.824Z,60.39
2017-08-19T11:26:33.563Z,60.10
2017-08-19T11:27:40.791Z,60.54
2017-08-19T11:28:47.475Z,60.21
2017-08-19T11:29:30.177Z,60.27
2017-08-19T11:30:11.893Z,59.72
2017-08-19T11:31:18.599Z,59.81
2017-08-19T11:32:34.611Z,59.98
2017-08-19T11:33:41.487Z,59.89
2017-08-19T11:34:48.586Z,60.02
2017-08-19T11:35:55.263Z,59.94
2017-08-19T11:36:45.783Z,59.43
2017-08-19T11:37:40.284Z,59.81
2017-08-19T11:38:47.617Z,59.42
2017-08-19T11:39:22.931Z,59.05
2017-08-19T11:39:58.260Z,58.89
2017-08-19T11:40:33.587Z,58.83
2017-08-19T11:41:08.915Z,58.86
2017-08-19T11:41:44.279Z,59.31
2017-08-19T11:42:19.572Z,59.58
2017-08-19T11:42:54.908Z,58.94
2017-08-19T11:44:02.076Z,59.07
2017-08-19T11:45:11.233Z,59.38
2017-08-19T11:46:18.767Z,59.65
2017-08-19T11:47:01.779Z,59.02
2017-08-19T11:47:38.688Z,58.71
2017-08-19T11:48:36.233Z,59.42
2017-08-19T11:49:43.112Z,59.18
2017-08-19T11:50:50.434Z,59.69
2017-08-19T11:51:57.185Z,59.75
2017-08-19T11:52:53.963Z,59.33
2017-08-19T11:53:34.087Z,58.39
2017-08-19T11:54:09.424Z,58.12
2017-08-19T11:55:19.944Z,58.36
2017-08-19T11:56:17.680Z,58.27
2017-08-19T11:56:57.800Z,58.36
2017-08-19T11:58:04.484Z,58.00
2017-08-19T11:59:11.679Z,58.25
2017-08-19T12:00:26.448Z,58.93
2017-08-19T12:01:33.298Z,58.52
2017-08-19T12:02:41.367Z,58.26
2017-08-19T12:03:48.627Z,58.73
2017-08-19T12:04:43.076Z,59.19
2017-08-19T12:05:25.427Z,59.13
2017-08-19T12:06:33.823Z,59.03
2017-08-19T12:07:40.559Z,59.25
2017-08-19T12:08:37.547Z,58.96
2017-08-19T12:09:45.837Z,58.89
2017-08-19T12:10:51.672Z,58.97
2017-08-19T12:11:59.343Z,59.26
2017-08-19T12:13:12.880Z,58.76
2017-08-19T12:13:49.792Z,58.34
2017-08-19T12:14:56.937Z,58.41
2017-08-19T12:15:41.923Z,58.56
2017-08-19T12:16:49.379Z,58.51
2017-08-19T12:17:56.248Z,58.76
2017-08-19T12:18:49.460Z,58.28
2017-08-19T12:19:24.568Z,57.72
2017-08-19T12:19:59.912Z,57.42
2017-08-19T12:20:43.368Z,57.48
2017-08-19T12:21:50.859Z,57.75
2017-08-19T12:22:30.771Z,58.24
2017-08-19T12:23:10.880Z,59.04
2017-08-19T12:24:17.501Z,58.95
2017-08-19T12:25:24.972Z,59.19
2017-08-19T12:26:32.227Z,59.52
2017-08-19T12:27:09.420Z,60.00
2017-08-19T12:28:18.151Z,60.35
2017-08-19T12:29:25.689Z,59.83
2017-08-19T12:30:32.422Z,59.97
2017-08-19T12:32:24.740Z,60.17
2017-08-19T12:33:32.591Z,60.05
2017-08-19T12:34:39.771Z,60.05
2017-08-19T12:35:46.594Z,60.11
2017-08-19T12:36:47.344Z,59.56
2017-08-19T12:37:24.268Z,58.47
2017-08-19T12:38:31.596Z,58.54
2017-08-19T12:39:39.171Z,58.56
2017-08-19T12:40:44.414Z,58.57
2017-08-19T12:41:51.219Z,58.65
2017-08-19T12:42:30.135Z,57.94
2017-08-19T12:43:18.276Z,57.89
2017-08-19T12:44:26.235Z,57.72
2017-08-19T12:45:36.019Z,57.96
2017-08-19T12:46:43.931Z,57.60
2017-08-19T12:47:50.618Z,57.93
2017-08-19T12:48:40.115Z,57.49
2017-08-19T12:49:48.180Z,57.08
2017-08-19T12:50:30.917Z,56.39
2017-08-19T12:51:38.225Z,56.44
2017-08-19T12:52:29.196Z,56.73
2017-08-19T12:53:36.308Z,56.58
2017-08-19T12:54:13.304Z,57.07
2017-08-19T12:55:20.319Z,56.92
2017-08-19T12:56:34.455Z,57.84
2017-08-19T12:57:41.243Z,57.87
2017-08-19T12:58:49.034Z,58.07
2017-08-19T12:59:56.198Z,57.76
2017-08-19T13:01:07.984Z,57.95
2017-08-19T13:02:12.120Z,58.00
2017-08-19T13:02:47.428Z,57.30
2017-08-19T13:03:55.339Z,57.31
2017-08-19T13:05:02.598Z,57.47
2017-08-19T13:06:09.436Z,57.66
2017-08-19T13:07:17.030Z,57.22
2017-08-19T13:07:54.768Z,56.65
2017-08-19T13:09:02.022Z,56.90
2017-08-19T13:10:09.327Z,57.10
2017-08-19T13:11:11.699Z,57.32
2017-08-19T13:11:47.029Z,57.60
2017-08-19T13:12:51.350Z,57.14
2017-08-19T13:13:31.772Z,56.58
2017-08-19T13:14:38.287Z,56.31
2017-08-19T13:15:12.200Z,56.21
2017-08-19T13:15:57.132Z,55.81
2017-08-19T13:16:45.468Z,55.86
2017-08-19T13:17:25.408Z,56.00
2017-08-19T13:18:43.918Z,55.92
2017-08-19T13:19:54.654Z,56.49
2017-08-19T13:21:01.286Z,56.34
2017-08-19T13:22:17.191Z,57.37
2017-08-19T13:23:23.692Z,57.16
2017-08-19T13:24:30.487Z,57.14
2017-08-19T13:25:37.270Z,57.03
2017-08-19T13:26:44.447Z,56.65
2017-08-19T13:28:02.719Z,56.63
2017-08-19T13:29:10.636Z,56.52
2017-08-19T13:30:01.240Z,56.05
2017-08-19T13:31:08.084Z,55.97
2017-08-19T13:32:17.586Z,56.03
2017-08-19T13:33:22.507Z,55.93
2017-08-19T13:34:29.312Z,55.74
2017-08-19T13:35:35.991Z,56.21
2017-08-19T13:36:23.782Z,55.61
2017-08-19T13:37:31.165Z,55.32
2017-08-19T13:38:38.156Z,55.56
2017-08-19T13:39:37.694Z,55.28
2017-08-19T13:40:44.361Z,54.91
2017-08-19T13:41:51.216Z,54.94
2017-08-19T13:42:58.440Z,55.22
2017-08-19T13:44:05.655Z,54.56
2017-08-19T13:45:21.651Z,54.79
2017-08-19T13:46:14.563Z,55.29
2017-08-19T13:47:22.011Z,55.14
2017-08-19T13:48:29.077Z,55.69
2017-08-19T13:49:36.210Z,54.91
2017-08-19T13:50:43.139Z,55.01
2017-08-19T13:51:50.085Z,54.53
2017-08-19T13:52:57.396Z,54.95
2017-08-19T13:54:04.703Z,54.79
2017-08-19T13:55:11.774Z,54.39
2017-08-19T13:56:18.995Z,54.55
2017-08-19T13:57:04.308Z,55.04
2017-08-19T13:58:11.236Z,54.60
2017-08-19T13:59:18.311Z,55.18
2017-08-19T14:00:25.568Z,54.61
2017-08-19T14:01:23.656Z,54.85
2017-08-19T14:02:30.894Z,54.33
2017-08-19T14:03:38.083Z,54.41
2017-08-19T14:04:45.358Z,53.48
2017-08-19T14:05:52.919Z,53.68
2017-08-19T14:06:59.751Z,54.04
2017-08-19T14:07:36.776Z,53.61
2017-08-19T14:08:43.921Z,53.22
2017-08-19T14:09:50.828Z,53.19
2017-08-19T14:10:26.428Z,53.08
2017-08-19T14:11:06.561Z,53.08
2017-08-19T14:12:14.211Z,53.38
2017-08-19T14:13:21.127Z,53.16
2017-08-19T14:14:27.832Z,54.34
2017-08-19T14:15:35.685Z,53.90
2017-08-19T14:16:43.464Z,53.69
2017-08-19T14:17:50.497Z,52.96
2017-08-19T14:19:05.095Z,54.08
2017-08-19T14:20:12.307Z,53.60
2017-08-19T14:21:27.185Z,53.10
2017-08-19T14:22:33.176Z,53.03
2017-08-19T14:23:19.746Z,53.16
2017-08-19T14:23:56.675Z,52.85
2017-08-19T14:25:03.392Z,52.95
2017-08-19T14:26:10.416Z,52.65
2017-08-19T14:27:17.118Z,53.78
2017-08-19T14:28:24.381Z,53.24
2017-08-19T14:29:31.231Z,53.79
2017-08-19T14:30:38.554Z,53.28
2017-08-19T14:31:45.250Z,53.56
2017-08-19T14:32:51.947Z,53.79
2017-08-19T14:33:59.076Z,53.97
2017-08-19T14:35:06.189Z,54.17
2017-08-19T14:36:16.243Z,54.06
2017-08-19T14:37:23.599Z,53.87
2017-08-19T14:38:11.548Z,54.17
2017-08-19T14:39:18.116Z,53.87
2017-08-19T14:39:52.271Z,53.47
2017-08-19T14:40:59.247Z,53.29
2017-08-19T14:41:33.219Z,53.02
2017-08-19T14:42:40.566Z,53.07
2017-08-19T14:43:48.082Z,53.66
2017-08-19T14:44:55.627Z,53.24
2017-08-19T14:46:03.578Z,53.45
2017-08-19T14:47:10.775Z,53.93
2017-08-19T14:48:17.871Z,53.87
2017-08-19T14:49:25.507Z,53.28
2017-08-19T14:50:02.155Z,53.14
2017-08-19T14:50:51.867Z,53.19
2017-08-19T14:51:59.191Z,53.09
2017-08-19T14:53:05.959Z,53.51
2017-08-19T14:54:13.231Z,53.31
2017-08-19T14:55:20.192Z,53.70
2017-08-19T14:56:26.917Z,53.98
2017-08-19T14:57:38.420Z,53.71
2017-08-19T14:58:45.147Z,53.59
2017-08-19T14:59:52.132Z,53.72
2017-08-19T15:00:39.335Z,53.25
2017-08-19T15:01:35.467Z,52.33
2017-08-19T15:02:42.374Z,52.21
2017-08-19T15:03:49.695Z,52.24
2017-08-19T15:04:56.874Z,52.65
2017-08-19T15:06:03.691Z,52.93
2017-08-19T15:07:16.398Z,53.56
2017-08-19T15:08:24.887Z,53.05
2017-08-19T15:09:02.324Z,53.35
2017-08-19T15:09:40.847Z,53.29
2017-08-19T15:10:55.992Z,53.84
2017-08-19T15:11:32.916Z,53.24
2017-08-19T15:12:39.875Z,53.34
2017-08-19T15:13:50.355Z,53.69
2017-08-19T15:19:33.397Z,49.98
2017-08-19T15:20:40.116Z,51.32
2017-08-19T15:21:16.489Z,51.81
2017-08-19T15:21:56.981Z,51.26
2017-08-19T15:23:04.925Z,51.09
2017-08-19T15:24:01.440Z,49.26
2017-08-19T15:24:49.945Z,52.15
2017-08-19T15:25:17.433Z,49.21
2017-08-19T15:25:49.752Z,49.93
2017-08-19T15:26:58.408Z,50.25
2017-08-19T15:28:10.680Z,53.72
2017-08-19T15:28:50.521Z,52.25
2017-08-19T15:29:23.381Z,53.00
2017-08-19T15:30:30.196Z,53.44
2017-08-19T15:31:13.563Z,50.64
2017-08-19T15:31:41.256Z,53.06
2017-08-19T15:32:48.624Z,52.98
2017-08-19T15:33:55.569Z,52.31
2017-08-19T15:34:58.505Z,51.36
2017-08-19T15:35:42.270Z,52.33
2017-08-19T15:36:15.657Z,51.72
2017-08-19T15:36:49.030Z,52.50
2017-08-19T15:37:56.234Z,52.24
2017-08-19T15:38:48.416Z,54.78
2017-08-19T15:39:20.205Z,55.28
2017-08-19T15:40:25.636Z,55.53
2017-08-19T15:41:33.023Z,55.70
2017-08-19T15:42:29.902Z,53.05
2017-08-19T15:43:36.822Z,54.07
2017-08-19T15:44:43.758Z,53.33
2017-08-19T15:45:43.452Z,49.97
2017-08-19T15:46:23.486Z,53.24
2017-08-19T15:47:11.009Z,52.59
2017-08-19T15:47:38.732Z,53.94
2017-08-19T15:48:45.592Z,53.96
2017-08-19T15:49:23.277Z,54.26
2017-08-19T15:50:29.763Z,54.84
2017-08-19T15:51:34.904Z,54.45
2017-08-19T15:52:41.962Z,54.13
2017-08-19T15:53:37.282Z,55.13
2017-08-19T15:54:44.700Z,54.80
2017-08-19T15:55:18.702Z,56.94
2017-08-19T15:56:25.511Z,57.17
2017-08-19T15:57:33.024Z,56.84
2017-08-19T15:58:00.608Z,56.46
2017-08-19T15:58:32.920Z,57.32
2017-08-19T15:59:00.449Z,58.75
2017-08-19T15:59:34.392Z,56.92
2017-08-19T16:00:05.645Z,53.95
2017-08-19T16:01:14.140Z,53.61
2017-08-19T16:02:21.245Z,54.79
2017-08-19T16:03:03.410Z,54.85
2017-08-19T16:04:10.505Z,54.51
2017-08-19T16:05:14.417Z,51.12
2017-08-19T16:06:06.996Z,54.36
2017-08-19T16:06:51.171Z,54.53
2017-08-19T16:07:17.664Z,55.47
2017-08-19T16:07:49.818Z,56.14
2017-08-19T16:08:29.998Z,58.13
2017-08-19T16:09:10.448Z,56.80
2017-08-19T16:09:50.335Z,58.27
2017-08-19T16:10:56.210Z,58.46
2017-08-19T16:12:04.268Z,54.49
2017-08-19T16:12:48.964Z,53.06
2017-08-19T16:13:22.465Z,55.06
2017-08-19T16:13:54.916Z,55.78
2017-08-19T16:14:41.108Z,57.14
2017-08-19T16:15:14.489Z,56.87
2017-08-19T16:15:47.829Z,58.29
2017-08-19T16:16:52.964Z,58.21
2017-08-19T16:17:28.444Z,57.56
2017-08-19T16:19:27.640Z,52.68
2017-08-19T16:20:19.113Z,54.29
2017-08-19T16:21:08.529Z,57.57
2017-08-19T16:21:57.873Z,59.16
2017-08-19T16:22:48.849Z,56.45
2017-08-19T16:23:36.640Z,56.69
2017-08-19T16:24:17.609Z,58.82
2017-08-19T16:25:00.978Z,60.12
2017-08-19T16:25:47.873Z,59.45
2017-08-19T16:26:54.893Z,57.09
2017-08-19T16:28:02.476Z,57.44
2017-08-19T16:29:09.444Z,56.06
2017-08-19T16:30:16.305Z,59.28
2017-08-19T16:30:56.457Z,56.60
2017-08-19T16:32:04.164Z,56.76
2017-08-19T16:32:40.768Z,56.60
2017-08-19T16:33:24.310Z,59.72
2017-08-19T16:35:05.425Z,61.47
2017-08-19T16:36:11.249Z,61.82
2017-08-19T16:36:49.207Z,59.89
2017-08-19T16:37:26.298Z,62.14
2017-08-19T16:38:05.050Z,59.08
2017-08-19T16:38:54.557Z,62.37
2017-08-19T16:39:37.373Z,60.75
2017-08-19T16:40:20.161Z,58.38
2017-08-19T16:41:16.925Z,56.79
2017-08-19T16:41:57.016Z,59.09
2017-08-19T16:42:35.165Z,60.45
2017-08-19T16:43:18.022Z,60.20
2017-08-19T16:44:04.437Z,60.04
2017-08-19T16:44:42.113Z,62.42
2017-08-19T16:45:53.192Z,62.44
2017-08-19T16:46:01.308Z,62.51
2017-08-19T16:46:09.433Z,62.14
2017-08-19T16:46:17.574Z,61.48
2017-08-19T16:46:25.709Z,62.44
2017-08-19T16:46:37.028Z,63.04
2017-08-19T16:46:46.208Z,62.96
2017-08-19T16:46:54.341Z,63.12
2017-08-19T16:47:02.480Z,63.44
2017-08-19T16:47:10.619Z,63.09
2017-08-19T16:47:18.749Z,63.43
2017-08-19T16:47:26.917Z,63.17
2017-08-19T16:47:35.036Z,63.79
2017-08-19T16:47:43.151Z,64.46
2017-08-19T16:47:51.296Z,64.18
2017-08-19T16:47:59.433Z,63.65
2017-08-19T16:48:07.565Z,64.35
2017-08-19T16:48:15.709Z,64.26
2017-08-19T16:48:23.841Z,65.33
2017-08-19T16:48:31.984Z,65.31